createdAt,value
2018-09-09T00:02:11.736Z,77.91
2018-09-09T00:04:38.935Z,77.75
2018-09-09T00:08:30.720Z,78.31
2018-09-09T00:10:57.963Z,79.16
2018-09-09T00:13:25.197Z,78.94
2018-09-09T00:15:52.403Z,78.15
2018-09-09T00:18:19.673Z,78.94
2018-09-09T00:20:46.856Z,79.04
2018-09-09T00:23:14.103Z,78.76
2018-09-09T00:25:41.294Z,79.28
2018-09-09T00:28:08.449Z,79.24
2018-09-09T00:30:35.676Z,79.47
2018-09-09T00:33:02.901Z,79.59
2018-09-09T00:35:30.117Z,79.29
2018-09-09T00:37:57.377Z,79.91
2018-09-09T00:40:24.648Z,79.99
2018-09-09T00:42:51.938Z,80.29
2018-09-09T00:45:19.145Z,80.73
2018-09-09T00:47:46.432Z,80.65
2018-09-09T00:50:19.458Z,79.15
2018-09-09T00:52:52.429Z,79.70
2018-09-09T00:55:19.646Z,79.64
2018-09-09T00:57:46.863Z,79.85
2018-09-09T01:00:16.938Z,79.23
2018-09-09T01:02:44.158Z,80.18
2018-09-09T01:05:11.431Z,80.25
2018-09-09T01:07:38.693Z,80.41
2018-09-09T01:10:05.896Z,80.55
2018-09-09T01:12:33.144Z,80.64
2018-09-09T01:15:00.296Z,81.39
2018-09-09T01:17:27.565Z,80.84
2018-09-09T01:19:54.794Z,80.60
2018-09-09T01:22:21.965Z,81.03
2018-09-09T01:24:49.155Z,81.30
2018-09-09T01:27:16.412Z,81.25
2018-09-09T01:29:43.634Z,81.35
2018-09-09T01:32:10.878Z,80.80
2018-09-09T01:34:38.097Z,81.44
2018-09-09T01:37:05.361Z,82.08
2018-09-09T01:39:32.600Z,82.29
2018-09-09T01:41:59.787Z,82.45
2018-09-09T01:44:27.034Z,81.53
2018-09-09T01:46:54.313Z,81.54
2018-09-09T01:49:21.529Z,81.89
2018-09-09T01:51:48.760Z,81.84
2018-09-09T01:54:16.003Z,81.03
2018-09-09T01:56:43.179Z,80.59
2018-09-09T01:59:10.444Z,81.66
2018-09-09T02:01:37.661Z,81.13
2018-09-09T02:04:04.960Z,81.36
2018-09-09T02:06:32.184Z,81.37
2018-09-09T02:08:59.392Z,81.36
2018-09-09T02:11:26.615Z,80.79
2018-09-09T02:13:53.888Z,81.40
2018-09-09T02:16:21.097Z,80.99
2018-09-09T02:18:48.321Z,81.46
2018-09-09T02:21:15.560Z,81.25
2018-09-09T02:26:22.423Z,81.06
2018-09-09T02:28:49.645Z,81.83
2018-09-09T02:31:16.805Z,81.54
2018-09-09T02:33:44.102Z,81.30
2018-09-09T02:36:11.580Z,81.82
2018-09-09T02:38:38.860Z,81.75
2018-09-09T02:41:06.017Z,81.71
2018-09-09T02:43:33.234Z,81.77
2018-09-09T02:46:00.488Z,82.18
2018-09-09T02:48:27.697Z,82.12
2018-09-09T02:50:54.880Z,81.69
2018-09-09T02:53:22.107Z,81.56
2018-09-09T02:55:49.373Z,81.29
2018-09-09T02:58:16.638Z,80.85
2018-09-09T03:00:44.024Z,81.26
2018-09-09T03:03:11.265Z,81.65
2018-09-09T03:05:38.662Z,81.36
2018-09-09T03:08:06.373Z,81.54
2018-09-09T03:10:33.670Z,81.38
2018-09-09T03:13:01.030Z,81.65
2018-09-09T03:15:28.312Z,82.20
2018-09-09T03:17:55.518Z,82.49
2018-09-09T03:20:22.787Z,83.01
2018-09-09T03:22:50.022Z,83.34
2018-09-09T03:25:17.198Z,83.13
2018-09-09T03:27:44.426Z,83.43
2018-09-09T03:30:11.662Z,82.29
2018-09-09T03:32:38.937Z,83.30
2018-09-09T03:35:06.218Z,83.69
2018-09-09T03:37:33.399Z,83.91
2018-09-09T03:40:00.641Z,84.03
2018-09-09T03:42:27.880Z,84.04
2018-09-09T03:44:55.095Z,83.06
2018-09-09T03:47:22.346Z,82.55
2018-09-09T03:49:49.594Z,83.00
2018-09-09T03:52:16.848Z,82.49
2018-09-09T03:54:44.005Z,82.94
2018-09-09T03:57:11.206Z,82.85
2018-09-09T03:59:38.509Z,83.71
2018-09-09T04:02:05.803Z,83.32
2018-09-09T04:04:33.063Z,83.05
2018-09-09T04:07:00.305Z,83.01
2018-09-09T04:09:27.535Z,82.84
2018-09-09T04:11:54.784Z,82.94
2018-09-09T04:14:21.953Z,82.62
2018-09-09T04:16:49.171Z,82.91
2018-09-09T04:19:16.366Z,82.87
2018-09-09T04:21:51.931Z,82.73
2018-09-09T04:24:20.253Z,83.32
2018-09-09T04:26:47.628Z,82.52
2018-09-09T04:29:15.052Z,82.28
2018-09-09T04:31:42.509Z,83.38
2018-09-09T04:34:09.813Z,83.98
2018-09-09T04:36:37.095Z,83.20
2018-09-09T04:39:07.417Z,83.25
2018-09-09T04:41:34.561Z,83.48
2018-09-09T04:44:01.780Z,82.60
2018-09-09T04:46:29.121Z,83.50
2018-09-09T04:48:56.249Z,82.71
2018-09-09T04:51:23.454Z,83.56
2018-09-09T04:53:50.617Z,83.53
2018-09-09T04:56:17.890Z,83.16
2018-09-09T04:58:45.103Z,83.78
2018-09-09T05:01:12.436Z,83.67
2018-09-09T05:03:39.612Z,84.13
2018-09-09T05:06:06.902Z,83.36
2018-09-09T05:08:34.131Z,83.63
2018-09-09T05:11:01.365Z,84.20
2018-09-09T05:13:28.590Z,84.73
2018-09-09T05:15:55.823Z,84.46
2018-09-09T05:18:22.979Z,84.83
2018-09-09T05:20:50.225Z,83.98
2018-09-09T05:23:17.397Z,84.36
2018-09-09T05:25:44.625Z,84.43
2018-09-09T05:28:11.878Z,83.43
2018-09-09T05:30:39.096Z,83.21
2018-09-09T05:33:06.347Z,83.94
2018-09-09T05:35:33.561Z,82.79
2018-09-09T05:38:00.781Z,82.19
2018-09-09T05:40:28.006Z,81.50
2018-09-09T05:42:55.204Z,83.08
2018-09-09T05:45:22.416Z,83.63
2018-09-09T05:47:49.701Z,84.67
2018-09-09T05:50:17.013Z,85.59
2018-09-09T05:52:44.185Z,85.10
2018-09-09T05:55:11.504Z,84.11
2018-09-09T05:57:38.945Z,82.30
2018-09-09T06:00:06.203Z,82.96
2018-09-09T06:02:33.518Z,81.46
2018-09-09T06:05:00.745Z,81.97
2018-09-09T06:07:27.978Z,81.35
2018-09-09T06:09:55.158Z,81.20
2018-09-09T06:12:22.355Z,81.97
2018-09-09T06:14:49.610Z,81.26
2018-09-09T06:17:16.742Z,81.06
2018-09-09T06:19:43.965Z,79.95
2018-09-09T06:22:11.235Z,79.53
2018-09-09T06:24:38.483Z,77.90
2018-09-09T06:27:05.717Z,77.97
2018-09-09T06:29:32.924Z,78.37
2018-09-09T06:32:00.212Z,78.48
2018-09-09T06:34:27.408Z,77.76
2018-09-09T06:36:54.667Z,77.11
2018-09-09T06:39:21.883Z,78.18
2018-09-09T06:41:49.187Z,78.79
2018-09-09T06:44:16.479Z,77.33
2018-09-09T06:46:43.773Z,76.12
2018-09-09T06:49:11.012Z,74.18
2018-09-09T06:51:38.239Z,74.28
2018-09-09T06:54:05.536Z,74.64
2018-09-09T06:56:32.923Z,73.52
2018-09-09T06:59:00.114Z,71.29
2018-09-09T07:01:27.333Z,69.38
2018-09-09T07:03:54.551Z,67.39
2018-09-09T07:06:21.828Z,63.79
2018-09-09T07:08:49.068Z,63.41
2018-09-09T07:11:16.270Z,62.16
2018-09-09T07:13:43.527Z,60.70
2018-09-09T07:16:10.782Z,59.60
2018-09-09T07:18:38.091Z,58.87
2018-09-09T07:21:05.332Z,58.16
2018-09-09T07:23:32.554Z,57.41
2018-09-09T07:25:59.798Z,58.55
2018-09-09T07:28:27.044Z,55.79
2018-09-09T07:30:54.208Z,54.46
2018-09-09T07:33:21.410Z,51.83
2018-09-09T07:35:48.641Z,50.52
2018-09-09T07:38:15.897Z,50.47
2018-09-09T07:40:43.220Z,50.54
2018-09-09T07:43:10.535Z,50.54
2018-09-09T07:45:37.696Z,50.46
2018-09-09T07:48:05.345Z,49.28
2018-09-09T07:50:32.620Z,48.71
2018-09-09T07:52:59.848Z,48.13
2018-09-09T07:55:27.047Z,46.83
2018-09-09T07:57:54.292Z,46.74
2018-09-09T08:00:21.548Z,46.77
2018-09-09T08:02:48.765Z,44.05
2018-09-09T08:05:15.987Z,45.31
2018-09-09T08:07:43.234Z,44.39
2018-09-09T08:10:10.521Z,44.50
2018-09-09T08:12:37.758Z,45.79
2018-09-09T08:15:05.468Z,45.65
2018-09-09T08:17:32.685Z,45.00
2018-09-09T08:19:59.873Z,44.99
2018-09-09T08:22:27.139Z,46.12
2018-09-09T08:24:54.421Z,47.25
2018-09-09T08:27:21.730Z,48.29
2018-09-09T08:29:48.996Z,47.33
2018-09-09T08:32:16.220Z,47.34
2018-09-09T08:34:43.460Z,48.34
2018-09-09T08:37:10.725Z,48.19
2018-09-09T08:39:37.949Z,48.10
2018-09-09T08:42:05.245Z,48.10
2018-09-09T08:44:32.457Z,48.44
2018-09-09T08:46:59.734Z,47.40
2018-09-09T08:49:26.951Z,47.30
2018-09-09T08:51:54.220Z,48.09
2018-09-09T08:54:21.442Z,48.09
2018-09-09T08:56:48.640Z,47.35
2018-09-09T08:59:15.873Z,48.68
2018-09-09T09:01:43.064Z,47.13
2018-09-09T09:04:10.275Z,47.23
2018-09-09T09:06:37.468Z,48.06
2018-09-09T09:09:06.989Z,46.51
2018-09-09T09:11:34.227Z,46.37
2018-09-09T09:14:01.521Z,44.96
2018-09-09T09:16:28.723Z,45.76
2018-09-09T09:18:55.927Z,46.19
2018-09-09T09:21:23.164Z,45.75
2018-09-09T09:23:50.381Z,45.70
2018-09-09T09:26:17.720Z,44.79
2018-09-09T09:28:44.958Z,45.54
2018-09-09T09:31:12.182Z,44.56
2018-09-09T09:33:39.445Z,44.46
2018-09-09T09:36:07.028Z,43.14
2018-09-09T09:38:34.298Z,41.68
2018-09-09T09:41:01.515Z,42.25
2018-09-09T09:43:28.765Z,40.30
2018-09-09T09:45:55.990Z,39.57
2018-09-09T09:48:23.248Z,41.74
2018-09-09T09:50:50.447Z,41.58
2018-09-09T09:53:17.771Z,41.65
2018-09-09T09:55:44.963Z,42.57
2018-09-09T09:58:12.203Z,40.36
2018-09-09T10:01:01.048Z,40.89
2018-09-09T10:03:28.351Z,43.22
2018-09-09T10:05:55.538Z,42.56
2018-09-09T10:08:22.780Z,41.29
2018-09-09T10:10:50.114Z,42.46
2018-09-09T10:13:17.346Z,41.43
2018-09-09T10:15:44.585Z,41.31
2018-09-09T10:18:11.837Z,39.94
2018-09-09T10:20:39.144Z,41.30
2018-09-09T10:23:06.473Z,39.93
2018-09-09T10:25:33.727Z,41.48
2018-09-09T10:28:00.937Z,40.54
2018-09-09T10:30:28.181Z,40.04
2018-09-09T10:32:55.933Z,40.53
2018-09-09T10:35:23.536Z,42.43
2018-09-09T10:37:50.774Z,43.22
2018-09-09T10:40:18.120Z,43.30
2018-09-09T10:42:45.287Z,43.23
2018-09-09T10:45:12.575Z,43.71
2018-09-09T10:47:39.882Z,42.49
2018-09-09T10:50:07.202Z,41.44
2018-09-09T10:52:34.430Z,40.76
2018-09-09T10:55:01.783Z,38.92
2018-09-09T10:57:29.053Z,39.38
2018-09-09T10:59:56.413Z,38.93
2018-09-09T11:02:24.066Z,38.42
2018-09-09T11:04:51.403Z,39.14
2018-09-09T11:07:18.960Z,38.68
2018-09-09T11:09:46.207Z,39.02
2018-09-09T11:12:13.472Z,37.61
2018-09-09T11:14:40.777Z,39.09
2018-09-09T11:17:07.977Z,39.41
2018-09-09T11:19:35.294Z,40.33
2018-09-09T11:22:02.535Z,40.48
2018-09-09T11:24:29.857Z,36.72
2018-09-09T11:26:56.997Z,36.73
2018-09-09T11:29:24.243Z,37.79
2018-09-09T11:31:51.505Z,37.21
2018-09-09T11:34:18.745Z,37.63
2018-09-09T11:36:46.068Z,36.78
2018-09-09T11:39:13.311Z,37.65
2018-09-09T11:41:42.287Z,35.85
2018-09-09T11:44:09.638Z,33.74
2018-09-09T11:46:36.980Z,34.69
2018-09-09T11:49:04.201Z,33.68
2018-09-09T11:51:31.836Z,33.58
2018-09-09T11:53:59.114Z,33.62
2018-09-09T11:56:26.753Z,32.19
2018-09-09T11:58:54.211Z,32.25
2018-09-09T12:01:21.551Z,33.90
2018-09-09T12:03:48.846Z,32.59
2018-09-09T12:06:16.170Z,33.93
2018-09-09T12:08:43.431Z,33.39
2018-09-09T12:11:10.667Z,34.15
2018-09-09T12:13:37.973Z,32.24
2018-09-09T12:16:05.263Z,33.86
2018-09-09T12:18:32.566Z,33.81
2018-09-09T12:20:59.939Z,32.49
2018-09-09T12:23:29.141Z,31.70
2018-09-09T12:25:56.408Z,33.66
2018-09-09T12:28:23.664Z,35.52
2018-09-09T12:30:50.915Z,35.97
2018-09-09T12:33:18.216Z,36.30
2018-09-09T12:35:45.563Z,34.24
2018-09-09T12:38:12.799Z,34.32
2018-09-09T12:40:40.038Z,34.93
2018-09-09T12:43:13.047Z,36.80
2018-09-09T12:46:48.874Z,35.32
2018-09-09T12:49:18.769Z,33.48
2018-09-09T12:51:47.595Z,32.60
2018-09-09T12:54:14.836Z,31.20
2018-09-09T12:56:42.138Z,32.00
2018-09-09T12:59:09.401Z,31.82
2018-09-09T13:01:36.648Z,31.73
2018-09-09T13:04:03.938Z,31.23
2018-09-09T13:06:31.135Z,30.22
2018-09-09T13:08:58.412Z,29.89
2018-09-09T13:11:25.974Z,29.33
2018-09-09T13:13:53.256Z,29.36
2018-09-09T13:16:20.489Z,30.75
2018-09-09T13:18:47.789Z,31.29
2018-09-09T13:21:14.976Z,32.58
2018-09-09T13:23:42.296Z,33.74
2018-09-09T13:26:09.573Z,34.70
2018-09-09T13:28:36.816Z,33.20
2018-09-09T13:31:04.145Z,34.72
2018-09-09T13:33:31.416Z,34.47
2018-09-09T13:36:00.157Z,34.77
2018-09-09T13:38:27.431Z,34.38
2018-09-09T13:40:54.704Z,34.58
2018-09-09T13:43:22.034Z,31.84
2018-09-09T13:45:49.334Z,31.97
2018-09-09T13:48:16.760Z,31.96
2018-09-09T13:50:43.956Z,31.08
2018-09-09T13:53:11.242Z,32.34
2018-09-09T13:55:38.470Z,32.08
2018-09-09T13:58:05.697Z,34.15
2018-09-09T14:00:32.978Z,33.35
2018-09-09T14:03:00.282Z,32.08
2018-09-09T14:05:27.555Z,31.30
2018-09-09T14:07:54.749Z,31.10
2018-09-09T14:10:22.056Z,31.71
2018-09-09T14:12:49.276Z,30.94
2018-09-09T14:15:16.516Z,31.34
2018-09-09T14:17:43.697Z,31.61
2018-09-09T14:20:10.950Z,31.12
2018-09-09T14:22:38.423Z,31.69
2018-09-09T14:25:05.724Z,30.38
2018-09-09T14:27:32.930Z,29.80
2018-09-09T14:30:00.160Z,30.71
2018-09-09T14:32:27.437Z,29.18
2018-09-09T14:34:54.804Z,29.94
2018-09-09T14:37:22.076Z,29.89
2018-09-09T14:39:49.317Z,29.81
2018-09-09T14:42:16.566Z,30.39
2018-09-09T14:44:43.847Z,29.31
2018-09-09T14:47:11.040Z,29.23
2018-09-09T14:49:38.389Z,28.80
2018-09-09T14:52:05.672Z,29.40
2018-09-09T14:54:33.007Z,28.35
2018-09-09T14:57:00.251Z,27.86
2018-09-09T14:59:27.495Z,27.11
2018-09-09T15:01:54.666Z,27.47
2018-09-09T15:04:21.883Z,27.40
2018-09-09T15:06:49.156Z,26.14
2018-09-09T15:09:16.387Z,27.34
2018-09-09T15:11:43.625Z,27.95
2018-09-09T15:14:10.911Z,26.78
2018-09-09T15:16:38.207Z,27.53
2018-09-09T15:19:05.457Z,27.88
2018-09-09T15:21:32.687Z,27.62
2018-09-09T15:23:59.975Z,27.66
2018-09-09T15:26:27.277Z,27.03
2018-09-09T15:28:54.580Z,26.85
2018-09-09T15:31:21.857Z,26.92
2018-09-09T15:33:49.069Z,26.83
2018-09-09T15:36:16.582Z,26.21
2018-09-09T15:38:43.924Z,27.18
2018-09-09T15:41:11.093Z,27.15
2018-09-09T15:43:38.369Z,26.57
2018-09-09T15:46:05.664Z,27.04
2018-09-09T15:48:32.964Z,26.38
2018-09-09T15:51:00.229Z,28.80
2018-09-09T15:53:27.498Z,30.10
2018-09-09T15:55:54.834Z,29.79
2018-09-09T15:58:22.104Z,29.35
2018-09-09T16:00:49.380Z,28.18
2018-09-09T16:03:16.600Z,28.22
2018-09-09T16:05:43.884Z,27.21
2018-09-09T16:08:11.179Z,28.22
2018-09-09T16:10:38.403Z,28.80
2018-09-09T16:13:05.644Z,28.53
2018-09-09T16:15:32.890Z,28.63
2018-09-09T16:18:00.149Z,29.06
2018-09-09T16:20:27.383Z,29.28
2018-09-09T16:22:54.643Z,29.09
2018-09-09T16:25:21.871Z,29.08
2018-09-09T16:27:49.085Z,28.69
2018-09-09T16:30:16.275Z,29.54
2018-09-09T16:32:43.553Z,28.74
2018-09-09T16:35:10.746Z,29.72
2018-09-09T16:37:37.978Z,29.22
2018-09-09T16:40:05.297Z,29.85
2018-09-09T16:42:32.647Z,29.97
2018-09-09T16:44:59.943Z,31.17
2018-09-09T16:47:27.280Z,31.09
2018-09-09T16:49:54.566Z,32.01
2018-09-09T16:52:21.908Z,32.05
2018-09-09T16:54:50.225Z,32.51
2018-09-09T16:57:17.451Z,34.32
2018-09-09T16:59:44.706Z,34.24
2018-09-09T17:02:11.945Z,35.15
2018-09-09T17:04:39.186Z,34.62
2018-09-09T17:07:06.417Z,35.22
2018-09-09T17:09:33.740Z,35.02
2018-09-09T17:12:01.003Z,36.19
2018-09-09T17:14:28.241Z,36.89
2018-09-09T17:16:55.401Z,36.78
2018-09-09T17:19:22.737Z,37.78
2018-09-09T17:21:50.045Z,37.09
2018-09-09T17:24:17.198Z,38.33
2018-09-09T17:26:44.435Z,38.34
2018-09-09T17:29:11.601Z,38.55
2018-09-09T17:31:38.873Z,39.80
2018-09-09T17:34:06.105Z,40.21
2018-09-09T17:36:33.378Z,41.36
2018-09-09T17:39:00.608Z,41.25
2018-09-09T17:41:27.888Z,40.87
2018-09-09T17:43:55.266Z,40.42
2018-09-09T17:46:22.466Z,41.10
2018-09-09T17:48:49.789Z,43.80
2018-09-09T17:51:17.085Z,43.36
2018-09-09T17:53:44.318Z,43.69
2018-09-09T17:56:11.546Z,45.46
2018-09-09T17:58:38.785Z,45.56
2018-09-09T18:01:06.032Z,46.21
2018-09-09T18:03:33.315Z,44.86
2018-09-09T18:06:00.630Z,45.03
2018-09-09T18:08:27.851Z,45.53
2018-09-09T18:10:55.126Z,46.42
2018-09-09T18:13:22.311Z,47.67
2018-09-09T18:15:49.626Z,47.39
2018-09-09T18:18:16.835Z,48.03
2018-09-09T18:20:44.132Z,48.03
2018-09-09T18:23:11.449Z,48.95
2018-09-09T18:25:39.763Z,49.62
2018-09-09T18:28:07.078Z,50.15
2018-09-09T18:30:34.304Z,48.72
2018-09-09T18:33:01.601Z,49.79
2018-09-09T18:35:29.114Z,49.69
2018-09-09T18:37:56.433Z,49.46
2018-09-09T18:40:23.740Z,49.50
2018-09-09T18:42:51.026Z,48.93
2018-09-09T18:45:18.295Z,48.23
2018-09-09T18:47:45.731Z,50.04
2018-09-09T18:50:12.860Z,50.56
2018-09-09T18:52:40.166Z,51.20
2018-09-09T18:55:07.393Z,51.76
2018-09-09T18:57:34.645Z,51.90
2018-09-09T19:00:01.991Z,51.93
2018-09-09T19:02:29.261Z,50.95
2018-09-09T19:04:56.548Z,51.27
2018-09-09T19:07:23.788Z,51.64
2018-09-09T19:09:50.976Z,52.51
2018-09-09T19:12:18.296Z,52.68
2018-09-09T19:14:45.514Z,52.22
2018-09-09T19:17:12.729Z,53.21
2018-09-09T19:19:39.966Z,53.79
2018-09-09T19:22:07.204Z,53.77
2018-09-09T19:24:34.420Z,54.24
2018-09-09T19:27:01.659Z,54.23
2018-09-09T19:29:28.950Z,53.71
2018-09-09T19:31:56.181Z,54.78
2018-09-09T19:34:23.590Z,54.46
2018-09-09T19:36:50.837Z,54.68
2018-09-09T19:39:18.104Z,54.69
2018-09-09T19:41:45.338Z,54.77
2018-09-09T19:44:12.681Z,55.26
2018-09-09T19:46:39.823Z,54.90
2018-09-09T19:49:07.138Z,54.62
2018-09-09T19:51:34.827Z,54.99
2018-09-09T19:54:02.029Z,55.57
2018-09-09T19:56:29.265Z,55.82
2018-09-09T19:58:56.522Z,57.50
2018-09-09T20:01:23.785Z,56.88
2018-09-09T20:03:50.959Z,57.02
2018-09-09T20:06:18.220Z,58.02
2018-09-09T20:08:45.397Z,57.94
2018-09-09T20:11:12.684Z,58.60
2018-09-09T20:13:39.941Z,58.98
2018-09-09T20:16:07.173Z,58.71
2018-09-09T20:18:34.486Z,59.10
2018-09-09T20:21:01.699Z,59.34
2018-09-09T20:23:28.942Z,58.90
2018-09-09T20:25:56.220Z,59.27
2018-09-09T20:28:23.432Z,59.95
2018-09-09T20:30:50.707Z,60.02
2018-09-09T20:33:17.970Z,59.84
2018-09-09T20:35:45.309Z,60.22
2018-09-09T20:38:12.583Z,59.97
2018-09-09T20:40:39.801Z,60.04
2018-09-09T20:43:07.057Z,60.15
2018-09-09T20:45:34.337Z,60.60
2018-09-09T20:48:01.611Z,60.50
2018-09-09T20:50:28.924Z,60.26
2018-09-09T20:52:56.154Z,60.78
2018-09-09T20:55:23.392Z,61.93
2018-09-09T20:57:50.613Z,61.30
2018-09-09T21:00:17.900Z,61.61
2018-09-09T21:02:45.121Z,62.44
2018-09-09T21:05:12.362Z,62.96
2018-09-09T21:07:39.628Z,62.87
2018-09-09T21:10:06.870Z,63.69
2018-09-09T21:12:34.223Z,63.54
2018-09-09T21:15:02.948Z,63.38
2018-09-09T21:17:30.454Z,63.33
2018-09-09T21:19:57.703Z,64.12
2018-09-09T21:22:24.901Z,63.66
2018-09-09T21:24:52.065Z,63.14
2018-09-09T21:27:19.331Z,64.73
2018-09-09T21:29:46.544Z,64.65
2018-09-09T21:32:13.848Z,64.85
2018-09-09T21:34:41.179Z,65.28
2018-09-09T21:37:08.362Z,65.68
2018-09-09T21:39:35.664Z,65.87
2018-09-09T21:42:02.899Z,66.06
2018-09-09T21:44:30.092Z,65.72
2018-09-09T21:46:57.373Z,66.09
2018-09-09T21:49:24.670Z,65.84
2018-09-09T21:51:51.989Z,65.85
2018-09-09T21:54:19.157Z,65.51
2018-09-09T21:56:46.375Z,65.48
2018-09-09T21:59:13.642Z,65.38
2018-09-09T22:01:46.549Z,66.39
2018-09-09T22:04:13.741Z,66.16
2018-09-09T22:06:40.949Z,66.56
2018-09-09T22:09:08.735Z,65.90
2018-09-09T22:11:36.321Z,68.01
2018-09-09T22:14:03.645Z,68.18
2018-09-09T22:16:30.949Z,67.95
2018-09-09T22:18:58.157Z,67.92
2018-09-09T22:21:25.446Z,68.80
2018-09-09T22:23:52.641Z,68.82
2018-09-09T22:26:19.940Z,68.98
2018-09-09T22:28:47.635Z,68.29
2018-09-09T22:31:14.851Z,68.86
2018-09-09T22:33:42.049Z,68.96
2018-09-09T22:36:09.618Z,69.41
2018-09-09T22:38:36.963Z,69.51
2018-09-09T22:41:04.265Z,69.87
2018-09-09T22:43:31.490Z,70.17
2018-09-09T22:45:59.176Z,70.22
2018-09-09T22:48:26.957Z,70.29
2018-09-09T22:50:54.169Z,70.43
2018-09-09T22:53:21.392Z,70.44
2018-09-09T22:55:48.698Z,70.59
2018-09-09T22:58:15.930Z,70.26
2018-09-09T23:00:43.232Z,70.63
2018-09-09T23:03:10.503Z,70.27
2018-09-09T23:05:37.824Z,70.19
2018-09-09T23:08:05.010Z,71.47
2018-09-09T23:10:32.268Z,70.11
2018-09-09T23:12:59.491Z,70.81
2018-09-09T23:15:27.635Z,71.58
2018-09-09T23:17:55.124Z,71.65
2018-09-09T23:20:22.392Z,71.27
2018-09-09T23:22:50.249Z,71.74
2018-09-09T23:25:17.479Z,72.09
2018-09-09T23:27:44.807Z,71.69
2018-09-09T23:30:12.085Z,71.81
2018-09-09T23:32:39.363Z,71.34
2018-09-09T23:35:06.668Z,71.50
2018-09-09T23:37:33.929Z,71.68
2018-09-09T23:40:01.169Z,71.76
2018-09-09T23:42:28.442Z,72.05
2018-09-09T23:44:55.663Z,71.68
2018-09-09T23:47:22.918Z,71.89
2018-09-09T23:49:50.099Z,72.92
2018-09-09T23:52:17.351Z,72.18
2018-09-09T23:54:44.799Z,72.08
2018-09-09T23:57:12.102Z,73.10
2018-09-09T23:59:39.342Z,72.86
